MV Sea Wolf — WCW6738 — position and weather

sailwx.info

Track history (hours):
 
Tides and Currents Weather Stations Pressure Air Temp Water Temp Dewpoint Dewpoint Depression Visibility Wind Speed Wind Dir Waves Ship Positions

MV Sea Wolf

Owner: SEA WOLF MARINE TOWING & TRANSPORTATION, Bayonne, NJ. More information available from US FCC via Universal Licensing System and Coast Guard Vessel Documentation Center.

Last reported at 2017-Apr-27 18:30 UTC. Time now 2017-Apr-27 18:55 UTC.
Position N 40°41' W 074°05'.

Length 66 m; draft 10 m.

MMSI: 367002350.

Date/timePositionNaut miles runAvg speedWind from/ knotsBaromVisibWave heightAir tempDewpointWater temp
2017-Apr-27 18:30N 40°41' W 074°05'0 0.0
2017-Apr-27 18:00N 40°41' W 074°05'0 0.3
2017-Apr-27 17:30N 40°41' W 074°04'2 4.2
2017-Apr-27 17:00N 40°40' W 074°02'1 2.5
2017-Apr-27 16:30N 40°40' W 074°01'2 4.3
2017-Apr-27 16:00N 40°42' W 074°00'4 7.7
2017-Apr-27 15:30N 40°45' W 073°58'4 7.0
2017-Apr-27 15:00N 40°48' W 073°54'2 1.6
2017-Apr-27 13:43N 40°49' W 073°52'1 3.0
2017-Apr-27 13:29N 40°48' W 073°52'5 9.7
2017-Apr-27 13:00N 40°45' W 073°57'5 9.1
2017-Apr-27 12:30N 40°42' W 074°00'3 6.0
2017-Apr-27 12:00N 40°41' W 074°04'0 0.3
2017-Apr-27 11:30N 40°41' W 074°04'0 0.0
2017-Apr-27 11:00N 40°41' W 074°04'0 0.3
2017-Apr-27 10:30N 40°41' W 074°05'0 0.0
2017-Apr-27 10:00N 40°41' W 074°05'0 0.0
2017-Apr-27 09:30N 40°41' W 074°05'0 0.0
2017-Apr-27 09:00N 40°41' W 074°05'0 0.0
2017-Apr-27 08:31N 40°41' W 074°05'0 0.0
2017-Apr-27 08:00N 40°41' W 074°05'0 0.0
2017-Apr-27 07:30N 40°41' W 074°05'0 0.0
2017-Apr-27 07:00N 40°41' W 074°05'0 0.0
2017-Apr-27 06:30N 40°41' W 074°05'0 0.0
2017-Apr-27 06:00N 40°41' W 074°05'0 0.0
2017-Apr-27 05:30N 40°41' W 074°05'0 0.0
2017-Apr-27 05:00N 40°41' W 074°05'0 0.0
2017-Apr-27 04:30N 40°41' W 074°05'0 0.0
2017-Apr-27 04:00N 40°41' W 074°05'0 0.0
2017-Apr-27 03:30N 40°41' W 074°05'0 0.0
2017-Apr-27 03:00N 40°41' W 074°05'0 0.0
2017-Apr-27 02:30N 40°41' W 074°05'0 0.0
2017-Apr-27 02:00N 40°41' W 074°05'1 1.3
2017-Apr-27 01:30N 40°41' W 074°04'3 5.3
2017-Apr-27 01:00N 40°42' W 074°01'2 3.7
2017-Apr-27 00:30N 40°43' W 073°59'2 4.2
2017-Apr-27 00:00N 40°44' W 073°57'0 0.2
2017-Apr-26 23:30N 40°44' W 073°57'3 5.7
2017-Apr-26 23:00N 40°42' W 073°60'4 7.1
2017-Apr-26 22:30N 40°40' W 074°03'1 2.5
2017-Apr-26 22:00N 40°41' W 074°05'0 0.0
2017-Apr-26 21:30N 40°41' W 074°05'0 0.0
2017-Apr-26 21:00N 40°41' W 074°05'0 0.0
2017-Apr-26 20:30N 40°41' W 074°05'0 0.0
2017-Apr-26 20:00N 40°41' W 074°05'0 0.0
2017-Apr-26 19:30N 40°41' W 074°05'0 0.0
2017-Apr-26 19:00N 40°41' W 074°05'0 0.0
2017-Apr-26 18:30N 40°41' W 074°05'0 0.0
2017-Apr-26 18:00N 40°41' W 074°05'0 0.0
2017-Apr-26 17:30N 40°41' W 074°05'0 0.0
2017-Apr-26 17:00N 40°41' W 074°05'0 0.0
2017-Apr-26 16:30N 40°41' W 074°05'0 0.0
2017-Apr-26 16:00N 40°41' W 074°05'0 0.0
2017-Apr-26 15:30N 40°41' W 074°05'0 0.0
2017-Apr-26 15:00N 40°41' W 074°05'0 0.0
2017-Apr-26 14:30N 40°41' W 074°05'0 0.0
2017-Apr-26 13:30N 40°41' W 074°05'0 0.0
2017-Apr-26 13:00N 40°41' W 074°05'0 0.0
2017-Apr-26 12:30N 40°41' W 074°05'0 0.0
2017-Apr-26 12:00N 40°41' W 074°05'0 0.0
2017-Apr-26 11:30N 40°41' W 074°05'0 0.0
2017-Apr-26 11:00N 40°41' W 074°05'0 0.0
2017-Apr-26 10:30N 40°41' W 074°05'0 0.0
2017-Apr-26 10:00N 40°41' W 074°05'0 0.0
2017-Apr-26 09:30N 40°41' W 074°05'0 0.0
2017-Apr-26 09:00N 40°41' W 074°05'0 0.0
2017-Apr-26 08:30N 40°41' W 074°05'0 0.0
2017-Apr-26 08:00N 40°41' W 074°05'0 0.0
2017-Apr-26 07:30N 40°41' W 074°05'0 0.0
2017-Apr-26 07:00N 40°41' W 074°05'0 0.0
2017-Apr-26 06:30N 40°41' W 074°05'0 0.0
2017-Apr-26 06:00N 40°41' W 074°05'0 0.0
2017-Apr-26 05:30N 40°41' W 074°05'0 0.0
2017-Apr-26 05:00N 40°41' W 074°05'0 0.0
2017-Apr-26 04:30N 40°41' W 074°05'0 0.0
2017-Apr-26 04:00N 40°41' W 074°05'1 2.5
2017-Apr-26 03:30N 40°41' W 074°03'2 4.3
2017-Apr-26 03:00N 40°40' W 074°01'1 1.1
2017-Apr-26 02:30N 40°40' W 074°01'3 6.1
2017-Apr-26 02:00N 40°43' W 073°59'2 4.4
2017-Apr-26 01:29N 40°44' W 073°57'0 0.0
2017-Apr-26 01:00N 40°44' W 073°57'0 0.0
2017-Apr-26 00:30N 40°44' W 073°57'2 4.2
2017-Apr-26 00:00N 40°43' W 073°59'4 8.3
2017-Apr-25 23:30N 40°41' W 074°03'1 2.2
2017-Apr-25 23:00N 40°41' W 074°04'0 0.3
2017-Apr-25 22:30N 40°41' W 074°05'0 0.0
2017-Apr-25 22:00N 40°41' W 074°05'0 0.0
2017-Apr-25 21:30N 40°41' W 074°05'0 0.0
2017-Apr-25 21:00N 40°41' W 074°05'0 0.0
2017-Apr-25 20:30N 40°41' W 074°05'0 0.0
2017-Apr-25 20:00N 40°41' W 074°05'0 0.0
2017-Apr-25 19:30N 40°41' W 074°05'0 0.0
2017-Apr-25 19:01N 40°41' W 074°05'0 0.0
2017-Apr-25 18:31N 40°41' W 074°05'0 0.0
2017-Apr-25 18:01N 40°41' W 074°05'0 0.0
2017-Apr-25 17:31N 40°41' W 074°05'0 0.0
2017-Apr-25 17:01N 40°41' W 074°05'0 0.0
2017-Apr-25 16:31N 40°41' W 074°05'0 0.0
2017-Apr-25 16:01N 40°41' W 074°05'3 5.4
2017-Apr-25 15:30N 40°39' W 074°06'4 8.6
2017-Apr-25 14:59N 40°38' W 074°12'2 2.2
2017-Apr-25 14:00N 40°39' W 074°10'2 4.3
2017-Apr-25 13:31N 40°39' W 074°07'3 6.7
2017-Apr-25 13:01N 40°41' W 074°03'3 6.8
2017-Apr-25 12:30N 40°44' W 074°01'1 2.2
2017-Apr-25 12:00N 40°45' W 074°01'0 0.0
2017-Apr-25 11:30N 40°45' W 074°01'0 0.0
2017-Apr-25 11:00N 40°45' W 074°01'0 0.0
2017-Apr-25 10:31N 40°45' W 074°01'3 5.6
2017-Apr-25 10:01N 40°42' W 074°02'2 4.4
2017-Apr-25 09:31N 40°41' W 074°05'0 0.0
2017-Apr-25 09:00N 40°41' W 074°05'0 0.0
2017-Apr-25 08:30N 40°41' W 074°05'0 0.0
2017-Apr-25 08:00N 40°41' W 074°05'0 0.0
2017-Apr-25 07:30N 40°41' W 074°05'0 0.0
2017-Apr-25 07:00N 40°41' W 074°05'0 0.1
2017-Apr-25 06:30N 40°41' W 074°05'0 0.3
2017-Apr-25 06:00N 40°41' W 074°04'1 2.0
2017-Apr-25 05:30N 40°40' W 074°03'2 4.3
2017-Apr-25 05:00N 40°40' W 074°01'0 0.3
2017-Apr-25 04:30N 40°40' W 074°01'1 2.6
2017-Apr-25 04:00N 40°41' W 074°01'4 7.8
2017-Apr-25 03:30N 40°44' W 073°58'1 2.0
2017-Apr-25 03:00N 40°44' W 073°57'1 2.6
2017-Apr-25 02:30N 40°45' W 073°58'4 8.8
2017-Apr-25 02:00N 40°48' W 073°53'1 2.0
2017-Apr-25 01:27N 40°49' W 073°53'1 1.2
2017-Apr-25 00:38N 40°48' W 073°52'1 5.0
2017-Apr-25 00:30N 40°48' W 073°52'4 8.1
2017-Apr-25 00:00N 40°46' W 073°57'2 3.4
2017-Apr-24 23:30N 40°44' W 073°57'0 0.1
2017-Apr-24 23:00N 40°44' W 073°57'1 1.6
2017-Apr-24 22:30N 40°44' W 073°58'3 5.9
2017-Apr-24 22:00N 40°42' W 074°00'3 5.9
2017-Apr-24 21:30N 40°41' W 074°04'1 1.8
2017-Apr-24 21:00N 40°41' W 074°05'0 0.3
2017-Apr-24 20:30N 40°41' W 074°05'0 0.0
2017-Apr-24 20:00N 40°41' W 074°05'0 0.0
2017-Apr-24 19:30N 40°41' W 074°05'0 0.0
2017-Apr-24 19:00N 40°41' W 074°05'0 0.0
2017-Apr-24 18:30N 40°41' W 074°05'0 0.0
2017-Apr-24 18:00N 40°41' W 074°05'0 0.0
2017-Apr-24 17:30N 40°41' W 074°05'0 0.0
2017-Apr-24 17:00N 40°41' W 074°05'0 0.0
2017-Apr-24 16:30N 40°41' W 074°05'0 0.0
2017-Apr-24 16:00N 40°41' W 074°05'0 0.0
2017-Apr-24 15:30N 40°41' W 074°05'0 0.0
2017-Apr-24 15:00N 40°41' W 074°05'0 0.0
2017-Apr-24 14:30N 40°41' W 074°05'0 0.0
2017-Apr-24 13:30N 40°41' W 074°05'0 0.0
2017-Apr-24 13:00N 40°41' W 074°05'0 0.0
2017-Apr-24 12:30N 40°41' W 074°05'0 0.0
2017-Apr-24 12:00N 40°41' W 074°05'0 0.0
2017-Apr-24 11:30N 40°41' W 074°05'0 0.0
2017-Apr-24 11:00N 40°41' W 074°05'0 0.0
2017-Apr-24 10:30N 40°41' W 074°05'0 0.0
2017-Apr-24 10:01N 40°41' W 074°05'0 0.0
2017-Apr-24 09:31N 40°41' W 074°05'0 0.0
2017-Apr-24 09:01N 40°41' W 074°05'0 0.0
2017-Apr-24 08:31N 40°41' W 074°05'0 0.0
2017-Apr-24 08:01N 40°41' W 074°05'0 0.0
2017-Apr-24 07:30N 40°41' W 074°05'0 0.0
2017-Apr-24 07:00N 40°41' W 074°05'0 0.0
2017-Apr-24 06:30N 40°41' W 074°05'0 0.0
2017-Apr-24 06:00N 40°41' W 074°05'0 0.0
2017-Apr-24 05:30N 40°41' W 074°05'0 0.0
2017-Apr-24 05:00N 40°41' W 074°05'0 0.0
2017-Apr-24 04:31N 40°41' W 074°05'0 0.0
2017-Apr-24 04:01N 40°41' W 074°05'0 0.0
2017-Apr-24 03:30N 40°41' W 074°05'0 0.0
2017-Apr-24 03:01N 40°41' W 074°05'0 0.0
2017-Apr-24 02:31N 40°41' W 074°05'0 0.0
2017-Apr-24 02:01N 40°41' W 074°05'0 0.0
2017-Apr-24 01:30N 40°41' W 074°05'0 0.0
2017-Apr-24 01:00N 40°41' W 074°05'0 0.0
2017-Apr-24 00:31N 40°41' W 074°05'0 0.0
2017-Apr-24 00:01N 40°41' W 074°05'0 0.0
2017-Apr-23 23:30N 40°41' W 074°05'0 0.0
2017-Apr-23 23:00N 40°41' W 074°05'0 0.0
2017-Apr-23 22:30N 40°41' W 074°05'0 0.0
2017-Apr-23 22:00N 40°41' W 074°05'0 0.0
2017-Apr-23 21:30N 40°41' W 074°05'0 0.0
2017-Apr-23 21:01N 40°41' W 074°05'0 0.0
2017-Apr-23 20:30N 40°41' W 074°05'0 0.0
2017-Apr-23 20:00N 40°41' W 074°05'0 0.0
2017-Apr-23 19:30N 40°41' W 074°05'0 0.0
2017-Apr-23 19:00N 40°41' W 074°05'0 0.0
2017-Apr-23 18:30N 40°41' W 074°05'0 0.0
2017-Apr-23 18:00N 40°41' W 074°05'0 0.0
2017-Apr-23 17:31N 40°41' W 074°05'0 0.1
2017-Apr-23 17:00N 40°41' W 074°05'0 0.0
2017-Apr-23 16:30N 40°41' W 074°05'0 0.0
2017-Apr-23 16:01N 40°41' W 074°05'0 0.0
2017-Apr-23 15:31N 40°41' W 074°05'0 0.0
2017-Apr-23 15:01N 40°41' W 074°05'0 0.0
2017-Apr-23 14:00N 40°41' W 074°05'0 0.0
2017-Apr-23 13:31N 40°41' W 074°05'0 0.0
2017-Apr-23 13:01N 40°41' W 074°05'0 0.0
2017-Apr-23 12:30N 40°41' W 074°05'0 0.0
2017-Apr-23 12:01N 40°41' W 074°05'0 0.0
2017-Apr-23 11:30N 40°41' W 074°05'0 0.1
2017-Apr-23 10:59N 40°41' W 074°05'0 0.0
2017-Apr-23 10:30N 40°41' W 074°05'0 0.0
2017-Apr-23 10:00N 40°41' W 074°05'0 0.0
2017-Apr-23 09:30N 40°41' W 074°05'0 0.0
2017-Apr-23 09:00N 40°41' W 074°05'0 0.0
2017-Apr-23 08:30N 40°41' W 074°05'0 0.0
2017-Apr-23 08:00N 40°41' W 074°05'0 0.0
2017-Apr-23 07:30N 40°41' W 074°05'0 0.0
2017-Apr-23 07:00N 40°41' W 074°05'0 0.0
2017-Apr-23 06:30N 40°41' W 074°05'0 0.0
2017-Apr-23 06:00N 40°41' W 074°05'0 0.0
2017-Apr-23 05:30N 40°41' W 074°05'0 0.0
2017-Apr-23 05:00N 40°41' W 074°05'0 0.0
2017-Apr-23 04:30N 40°41' W 074°05'0 0.0
2017-Apr-23 04:00N 40°41' W 074°05'0 0.0
2017-Apr-23 03:30N 40°41' W 074°05'0 0.0
2017-Apr-23 03:00N 40°41' W 074°05'0 0.0
2017-Apr-23 02:30N 40°41' W 074°05'0 0.0
2017-Apr-23 02:00N 40°41' W 074°05'0 0.0
2017-Apr-23 01:30N 40°41' W 074°05'0 0.0
2017-Apr-23 01:00N 40°41' W 074°05'0 0.0
2017-Apr-23 00:30N 40°41' W 074°05'0 0.0
2017-Apr-23 00:00N 40°41' W 074°05'0 0.0
2017-Apr-22 23:30N 40°41' W 074°05'0 0.0
2017-Apr-22 23:00N 40°41' W 074°05'0 0.0
2017-Apr-22 22:30N 40°41' W 074°05'0 0.0
2017-Apr-22 22:00N 40°41' W 074°05'0 0.0
2017-Apr-22 21:30N 40°41' W 074°05'0 0.0
2017-Apr-22 21:00N 40°41' W 074°05'0 0.0
2017-Apr-22 20:30N 40°41' W 074°05'0 0.0
2017-Apr-22 20:00N 40°41' W 074°05'0 0.0
2017-Apr-22 19:30N 40°41' W 074°05'0 0.0
2017-Apr-22 19:00N 40°41' W 074°05'0 0.0
2017-Apr-22 18:30N 40°41' W 074°05'0 0.0
2017-Apr-22 18:00N 40°41' W 074°05'0 0.0
2017-Apr-22 17:30N 40°41' W 074°05'0 0.0
2017-Apr-22 17:00N 40°41' W 074°05'0 0.0
2017-Apr-22 16:30N 40°41' W 074°05'0 0.0
2017-Apr-22 16:00N 40°41' W 074°05'0 0.0
2017-Apr-22 15:30N 40°41' W 074°05'0 0.0
2017-Apr-22 15:00N 40°41' W 074°05'0 0.0
2017-Apr-22 14:30N 40°41' W 074°05'0 0.0
2017-Apr-22 13:30N 40°41' W 074°05'0 0.0
2017-Apr-22 13:00N 40°41' W 074°05'0 0.0
2017-Apr-22 12:30N 40°41' W 074°05'0 0.0
2017-Apr-22 11:30N 40°41' W 074°05'0 0.0
2017-Apr-22 11:00N 40°41' W 074°05'0 0.0
2017-Apr-22 10:30N 40°41' W 074°05'0 0.0
2017-Apr-22 10:00N 40°41' W 074°05'0 0.0
2017-Apr-22 09:30N 40°41' W 074°05'0 0.0
2017-Apr-22 09:00N 40°41' W 074°05'0 0.0
2017-Apr-22 08:30N 40°41' W 074°05'0 0.0
2017-Apr-22 08:00N 40°41' W 074°05'0 0.0
2017-Apr-22 07:30N 40°41' W 074°05'0 0.0
2017-Apr-22 07:00N 40°41' W 074°05'0 0.0
2017-Apr-22 06:30N 40°41' W 074°05'0 0.0
2017-Apr-22 06:00N 40°41' W 074°05'0 0.0
2017-Apr-22 05:30N 40°41' W 074°05'0 0.0
2017-Apr-22 05:00N 40°41' W 074°05'0 0.0
2017-Apr-22 04:30N 40°41' W 074°05'0 0.0
2017-Apr-22 04:00N 40°41' W 074°05'0 0.0
2017-Apr-22 03:30N 40°41' W 074°05'0 0.0
2017-Apr-22 03:00N 40°41' W 074°05'0 0.3
2017-Apr-22 02:30N 40°41' W 074°04'3 5.8
2017-Apr-22 02:00N 40°42' W 074°01'4 7.7
2017-Apr-22 01:30N 40°44' W 073°57'0 0.9
2017-Apr-22 01:00N 40°44' W 073°57'2 4.8
2017-Apr-22 00:30N 40°42' W 073°59'3 5.1
2017-Apr-22 00:00N 40°41' W 074°02'2 3.6
2017-Apr-21 23:30N 40°41' W 074°04'0 0.4
2017-Apr-21 23:00N 40°41' W 074°05'0 0.0
2017-Apr-21 22:30N 40°41' W 074°05'0 0.0
2017-Apr-21 22:00N 40°41' W 074°05'0 0.0
2017-Apr-21 21:30N 40°41' W 074°05'0 0.0
2017-Apr-21 21:00N 40°41' W 074°05'0 0.0
2017-Apr-21 20:30N 40°41' W 074°05'0 0.0
2017-Apr-21 20:00N 40°41' W 074°05'0 0.3
2017-Apr-21 19:30N 40°41' W 074°04'2 4.5
2017-Apr-21 19:00N 40°39' W 074°05'3 5.4
2017-Apr-21 18:30N 40°39' W 074°09'3 5.0
2017-Apr-21 18:00N 40°38' W 074°12'2 4.4
2017-Apr-21 17:27N 40°35' W 074°12'1 3.3
2017-Apr-21 17:00N 40°37' W 074°12'3 5.6
2017-Apr-21 16:30N 40°39' W 074°10'4 7.2
2017-Apr-21 16:00N 40°39' W 074°05'2 3.8
2017-Apr-21 15:30N 40°41' W 074°04'0 0.3
2017-Apr-21 15:00N 40°41' W 074°05'0 0.0
2017-Apr-21 14:30N 40°41' W 074°05'0 0.0
2017-Apr-21 13:30N 40°41' W 074°05'0 0.7
2017-Apr-21 13:00N 40°41' W 074°04'3 6.2
2017-Apr-21 12:30N 40°40' W 074°01'3 5.5
2017-Apr-21 12:00N 40°42' W 073°60'4 8.8
2017-Apr-21 11:30N 40°46' W 073°57'4 7.8
2017-Apr-21 10:58N 40°48' W 073°52'0 0.2
2017-Apr-21 09:55N 40°48' W 073°52'3 6.1
2017-Apr-21 09:30N 40°47' W 073°55'4 8.3
2017-Apr-21 09:00N 40°44' W 073°58'4 7.8
2017-Apr-21 08:30N 40°41' W 074°01'2 4.6
2017-Apr-21 08:00N 40°41' W 074°04'0 0.4
2017-Apr-21 07:30N 40°41' W 074°05'0 0.0
2017-Apr-21 07:00N 40°41' W 074°05'0 0.0
2017-Apr-21 06:30N 40°41' W 074°05'0 0.0
2017-Apr-21 06:00N 40°41' W 074°05'0 0.0
2017-Apr-21 05:30N 40°41' W 074°05'0 0.0
2017-Apr-21 05:00N 40°41' W 074°05'0 0.0
2017-Apr-21 04:30N 40°41' W 074°05'2 3.0
2017-Apr-21 04:00N 40°40' W 074°04'4 7.5
2017-Apr-21 03:30N 40°39' W 074°09'3 5.5
2017-Apr-21 03:00N 40°42' W 074°09'1 2.2
2017-Apr-21 02:30N 40°41' W 074°08'2 4.2
2017-Apr-21 02:00N 40°39' W 074°08'3 5.3
2017-Apr-21 01:30N 40°39' W 074°05'3 5.7
2017-Apr-21 01:00N 40°41' W 074°02'4 7.1
2017-Apr-21 00:30N 40°43' W 073°58'4 7.9
2017-Apr-21 00:00N 40°47' W 073°56'3 6.6
2017-Apr-20 23:30N 40°48' W 073°52'0 0.1
2017-Apr-20 22:34N 40°48' W 073°52'1 8.3
2017-Apr-20 22:28N 40°48' W 073°53'4 7.9
2017-Apr-20 22:00N 40°46' W 073°57'4 8.9
2017-Apr-20 21:30N 40°42' W 073°60'4 7.2
2017-Apr-20 21:00N 40°41' W 074°05'0 0.2
2017-Apr-20 20:30N 40°41' W 074°05'0 0.0
2017-Apr-20 20:00N 40°41' W 074°05'0 0.0
2017-Apr-20 19:30N 40°41' W 074°05'0 0.0
2017-Apr-20 19:00N 40°41' W 074°05'0 0.0
2017-Apr-20 18:30N 40°41' W 074°05'0 0.0
2017-Apr-20 18:00N 40°41' W 074°05'0 0.0
2017-Apr-20 17:30N 40°41' W 074°05'0 0.0
2017-Apr-20 17:00N 40°41' W 074°05'0 0.0
2017-Apr-20 16:30N 40°41' W 074°05'0 0.0
2017-Apr-20 16:00N 40°41' W 074°05'0 0.0
2017-Apr-20 15:30N 40°41' W 074°05'0 0.0
2017-Apr-20 15:00N 40°41' W 074°05'0 0.0
2017-Apr-20 14:30N 40°41' W 074°05'0 0.0
2017-Apr-20 13:30N 40°41' W 074°05'0 0.4
2017-Apr-20 13:00N 40°41' W 074°04'2 4.0
2017-Apr-20 12:30N 40°40' W 074°02'1 2.8
2017-Apr-20 12:00N 40°40' W 074°01'1 2.1
2017-Apr-20 11:30N 40°41' W 074°01'4 8.0
2017-Apr-20 11:00N 40°44' W 073°58'5 9.3
2017-Apr-20 10:30N 40°48' W 073°54'2 1.6
2017-Apr-20 09:13N 40°49' W 073°52'1 4.2
2017-Apr-20 09:00N 40°48' W 073°53'4 7.7
2017-Apr-20 08:30N 40°46' W 073°57'4 8.4
2017-Apr-20 08:00N 40°42' W 073°60'3 6.6
2017-Apr-20 07:30N 40°41' W 074°04'1 1.7
2017-Apr-20 07:00N 40°41' W 074°04'0 0.1
2017-Apr-20 06:30N 40°41' W 074°04'0 0.3
2017-Apr-20 06:00N 40°41' W 074°05'0 0.0
2017-Apr-20 05:30N 40°41' W 074°05'0 0.0
2017-Apr-20 05:00N 40°41' W 074°05'0 0.0
2017-Apr-20 04:30N 40°41' W 074°05'0 0.0
2017-Apr-20 04:00N 40°41' W 074°05'0 0.0
2017-Apr-20 03:30N 40°41' W 074°05'0 0.0
2017-Apr-20 03:00N 40°41' W 074°05'0 0.0
2017-Apr-20 02:30N 40°41' W 074°05'0 0.0
2017-Apr-20 02:00N 40°41' W 074°05'0 0.0
2017-Apr-20 01:30N 40°41' W 074°05'0 0.0
2017-Apr-20 01:00N 40°41' W 074°05'0 0.0
2017-Apr-20 00:30N 40°41' W 074°05'0 0.0
2017-Apr-20 00:00N 40°41' W 074°05'0 0.0
2017-Apr-19 23:30N 40°41' W 074°05'0 0.0
2017-Apr-19 23:00N 40°41' W 074°05'0 0.0
2017-Apr-19 22:30N 40°41' W 074°05'0 0.0
2017-Apr-19 22:00N 40°41' W 074°05'0 0.0
2017-Apr-19 21:30N 40°41' W 074°05'0 0.0
2017-Apr-19 21:00N 40°41' W 074°05'0 0.0
2017-Apr-19 20:30N 40°41' W 074°05'0 0.0
2017-Apr-19 20:00N 40°41' W 074°05'0 0.0
2017-Apr-19 19:30N 40°41' W 074°05'0 0.0
2017-Apr-19 19:00N 40°41' W 074°05'0 0.7
2017-Apr-19 18:30N 40°41' W 074°04'2 4.6
2017-Apr-19 18:00N 40°40' W 074°01'1 1.7
2017-Apr-19 17:30N 40°40' W 074°01'2 4.6
2017-Apr-19 17:00N 40°40' W 074°03'1 2.5
2017-Apr-19 16:30N 40°41' W 074°05'0 0.0
2017-Apr-19 16:00N 40°41' W 074°05'0 0.0
2017-Apr-19 15:30N 40°41' W 074°05'0 0.0
2017-Apr-19 15:00N 40°41' W 074°05'0 0.0
2017-Apr-19 14:30N 40°41' W 074°05'0 0.0
2017-Apr-19 13:30N 40°41' W 074°05'0 0.0
2017-Apr-19 13:00N 40°41' W 074°05'0 0.0
2017-Apr-19 12:30N 40°41' W 074°05'0 0.0
2017-Apr-19 12:00N 40°41' W 074°05'0 0.0
2017-Apr-19 11:30N 40°41' W 074°05'0 0.0
2017-Apr-19 11:00N 40°41' W 074°05'0 0.0
2017-Apr-19 10:31N 40°41' W 074°05'0 0.0
2017-Apr-19 10:00N 40°41' W 074°05'0 0.0
2017-Apr-19 09:30N 40°41' W 074°05'0 0.0
2017-Apr-19 09:00N 40°41' W 074°05'0 0.0
2017-Apr-19 08:30N 40°41' W 074°05'0 0.0
2017-Apr-19 08:01N 40°41' W 074°05'0 0.0
2017-Apr-19 07:30N 40°41' W 074°05'0 0.0
2017-Apr-19 07:01N 40°41' W 074°05'0 0.0
2017-Apr-19 06:30N 40°41' W 074°05'0 0.0
2017-Apr-19 06:00N 40°41' W 074°05'0 0.0
2017-Apr-19 05:30N 40°41' W 074°05'0 0.0
2017-Apr-19 05:00N 40°41' W 074°05'0 0.0
2017-Apr-19 04:30N 40°41' W 074°05'0 0.0
2017-Apr-19 04:01N 40°41' W 074°05'0 0.0
2017-Apr-19 03:31N 40°41' W 074°05'0 0.1
2017-Apr-19 03:01N 40°41' W 074°05'0 0.6
2017-Apr-19 02:30N 40°41' W 074°04'3 5.2
2017-Apr-19 02:01N 40°39' W 074°06'3 6.6
2017-Apr-19 01:30N 40°39' W 074°10'3 5.8
2017-Apr-19 00:54N 40°36' W 074°12'0 0.4
2017-Apr-19 00:27N 40°35' W 074°12'2 5.2
2017-Apr-19 00:00N 40°38' W 074°12'3 6.6
2017-Apr-18 23:30N 40°39' W 074°08'3 6.7
2017-Apr-18 23:01N 40°40' W 074°04'1 2.6
2017-Apr-18 22:31N 40°41' W 074°04'0 0.2
2017-Apr-18 22:00N 40°41' W 074°05'0 0.1
2017-Apr-18 21:30N 40°41' W 074°05'0 0.1
2017-Apr-18 21:00N 40°41' W 074°05'0 0.0
2017-Apr-18 20:30N 40°41' W 074°05'0 0.0
2017-Apr-18 20:00N 40°41' W 074°05'0 0.0
2017-Apr-18 19:30N 40°41' W 074°05'0 0.0
2017-Apr-18 19:00N 40°41' W 074°05'0 0.0
2017-Apr-18 18:30N 40°41' W 074°05'0 0.0
2017-Apr-18 18:01N 40°41' W 074°05'0 0.0
2017-Apr-18 17:31N 40°41' W 074°05'0 0.0
2017-Apr-18 17:00N 40°41' W 074°05'0 0.0
2017-Apr-18 16:31N 40°41' W 074°05'0 0.0
2017-Apr-18 16:00N 40°41' W 074°05'0 0.0
2017-Apr-18 15:31N 40°41' W 074°05'0 0.0
2017-Apr-18 15:00N 40°41' W 074°05'0 0.0
2017-Apr-18 14:30N 40°41' W 074°05'0 0.0
2017-Apr-18 13:30N 40°41' W 074°05'0 0.0
2017-Apr-18 13:00N 40°41' W 074°05'0 0.0
2017-Apr-18 12:30N 40°41' W 074°05'0 0.0
2017-Apr-18 12:00N 40°41' W 074°05'0 0.0
2017-Apr-18 11:31N 40°41' W 074°05'0 0.0
2017-Apr-18 11:01N 40°41' W 074°05'0 0.0
2017-Apr-18 10:30N 40°41' W 074°05'0 0.0
2017-Apr-18 10:01N 40°41' W 074°05'0 0.0
2017-Apr-18 09:31N 40°41' W 074°05'0 0.0
2017-Apr-18 09:00N 40°41' W 074°05'0 0.0
2017-Apr-18 08:31N 40°41' W 074°05'0 0.0
2017-Apr-18 08:01N 40°41' W 074°05'0 0.0
2017-Apr-18 07:31N 40°41' W 074°05'0 0.0
2017-Apr-18 07:01N 40°41' W 074°05'0 0.0
2017-Apr-18 06:31N 40°41' W 074°05'0 0.0
2017-Apr-18 06:01N 40°41' W 074°05'0 0.0
2017-Apr-18 05:31N 40°41' W 074°05'0 0.0
2017-Apr-18 05:01N 40°41' W 074°05'0 0.0
2017-Apr-18 04:31N 40°41' W 074°05'0 0.0
2017-Apr-18 04:01N 40°41' W 074°05'0 0.0
2017-Apr-18 03:31N 40°41' W 074°05'1 2.8
2017-Apr-18 03:01N 40°41' W 074°03'3 6.5
2017-Apr-18 02:30N 40°42' W 073°59'3 5.0
2017-Apr-18 02:00N 40°44' W 073°57'0 0.4
2017-Apr-18 01:30N 40°44' W 073°57'1 1.2
2017-Apr-18 01:01N 40°44' W 073°57'3 5.3
2017-Apr-18 00:31N 40°42' W 073°60'3 5.7
2017-Apr-18 00:01N 40°41' W 074°03'1 2.7
2017-Apr-17 23:30N 40°41' W 074°04'0 0.0
2017-Apr-17 23:01N 40°41' W 074°05'0 0.3
2017-Apr-17 22:31N 40°41' W 074°05'0 0.0
2017-Apr-17 22:01N 40°41' W 074°05'0 0.0
2017-Apr-17 21:31N 40°41' W 074°05'0 0.0
2017-Apr-17 21:01N 40°41' W 074°05'0 0.0
2017-Apr-17 20:31N 40°41' W 074°05'0 0.0
2017-Apr-17 20:01N 40°41' W 074°05'0 0.0
2017-Apr-17 19:31N 40°41' W 074°05'0 0.0
2017-Apr-17 19:01N 40°41' W 074°05'0 0.0
2017-Apr-17 18:31N 40°41' W 074°05'  
Track history (hours):
 
Tides and Currents Weather Stations Pressure Air Temp Water Temp Dewpoint Dewpoint Depression Visibility Wind Speed Wind Dir Waves Ship Positions

MV Sea Wolf

Owner: SEA WOLF MARINE TOWING & TRANSPORTATION, Bayonne, NJ. More information available from US FCC via Universal Licensing System and Coast Guard Vessel Documentation Center.

Last reported at 2017-Apr-27 18:30 UTC. Time now 2017-Apr-27 18:55 UTC.
Position N 40°41' W 074°05'.

Length 66 m; draft 10 m.

MMSI: 367002350.

Date/timePositionNaut miles runAvg speedWind from/ knotsBaromVisibWave heightAir tempDewpointWater temp
2017-Apr-27 18:30N 40°41' W 074°05'0 0.0
2017-Apr-27 18:00N 40°41' W 074°05'0 0.3
2017-Apr-27 17:30N 40°41' W 074°04'2 4.2
2017-Apr-27 17:00N 40°40' W 074°02'1 2.5
2017-Apr-27 16:30N 40°40' W 074°01'2 4.3
2017-Apr-27 16:00N 40°42' W 074°00'4 7.7
2017-Apr-27 15:30N 40°45' W 073°58'4 7.0
2017-Apr-27 15:00N 40°48' W 073°54'2 1.6
2017-Apr-27 13:43N 40°49' W 073°52'1 3.0
2017-Apr-27 13:29N 40°48' W 073°52'5 9.7
2017-Apr-27 13:00N 40°45' W 073°57'5 9.1
2017-Apr-27 12:30N 40°42' W 074°00'3 6.0
2017-Apr-27 12:00N 40°41' W 074°04'0 0.3
2017-Apr-27 11:30N 40°41' W 074°04'0 0.0
2017-Apr-27 11:00N 40°41' W 074°04'0 0.3
2017-Apr-27 10:30N 40°41' W 074°05'0 0.0
2017-Apr-27 10:00N 40°41' W 074°05'0 0.0
2017-Apr-27 09:30N 40°41' W 074°05'0 0.0
2017-Apr-27 09:00N 40°41' W 074°05'0 0.0
2017-Apr-27 08:31N 40°41' W 074°05'0 0.0
2017-Apr-27 08:00N 40°41' W 074°05'0 0.0
2017-Apr-27 07:30N 40°41' W 074°05'0 0.0
2017-Apr-27 07:00N 40°41' W 074°05'0 0.0
2017-Apr-27 06:30N 40°41' W 074°05'0 0.0
2017-Apr-27 06:00N 40°41' W 074°05'0 0.0
2017-Apr-27 05:30N 40°41' W 074°05'0 0.0
2017-Apr-27 05:00N 40°41' W 074°05'0 0.0
2017-Apr-27 04:30N 40°41' W 074°05'0 0.0
2017-Apr-27 04:00N 40°41' W 074°05'0 0.0
2017-Apr-27 03:30N 40°41' W 074°05'0 0.0
2017-Apr-27 03:00N 40°41' W 074°05'0 0.0
2017-Apr-27 02:30N 40°41' W 074°05'0 0.0
2017-Apr-27 02:00N 40°41' W 074°05'1 1.3
2017-Apr-27 01:30N 40°41' W 074°04'3 5.3
2017-Apr-27 01:00N 40°42' W 074°01'2 3.7
2017-Apr-27 00:30N 40°43' W 073°59'2 4.2
2017-Apr-27 00:00N 40°44' W 073°57'0 0.2
2017-Apr-26 23:30N 40°44' W 073°57'3 5.7
2017-Apr-26 23:00N 40°42' W 073°60'4 7.1
2017-Apr-26 22:30N 40°40' W 074°03'1 2.5
2017-Apr-26 22:00N 40°41' W 074°05'0 0.0
2017-Apr-26 21:30N 40°41' W 074°05'0 0.0
2017-Apr-26 21:00N 40°41' W 074°05'0 0.0
2017-Apr-26 20:30N 40°41' W 074°05'0 0.0
2017-Apr-26 20:00N 40°41' W 074°05'0 0.0
2017-Apr-26 19:30N 40°41' W 074°05'0 0.0
2017-Apr-26 19:00N 40°41' W 074°05'0 0.0
2017-Apr-26 18:30N 40°41' W 074°05'0 0.0
2017-Apr-26 18:00N 40°41' W 074°05'0 0.0
2017-Apr-26 17:30N 40°41' W 074°05'0 0.0
2017-Apr-26 17:00N 40°41' W 074°05'0 0.0
2017-Apr-26 16:30N 40°41' W 074°05'0 0.0
2017-Apr-26 16:00N 40°41' W 074°05'0 0.0
2017-Apr-26 15:30N 40°41' W 074°05'0 0.0
2017-Apr-26 15:00N 40°41' W 074°05'0 0.0
2017-Apr-26 14:30N 40°41' W 074°05'0 0.0
2017-Apr-26 13:30N 40°41' W 074°05'0 0.0
2017-Apr-26 13:00N 40°41' W 074°05'0 0.0
2017-Apr-26 12:30N 40°41' W 074°05'0 0.0
2017-Apr-26 12:00N 40°41' W 074°05'0 0.0
2017-Apr-26 11:30N 40°41' W 074°05'0 0.0
2017-Apr-26 11:00N 40°41' W 074°05'0 0.0
2017-Apr-26 10:30N 40°41' W 074°05'0 0.0
2017-Apr-26 10:00N 40°41' W 074°05'0 0.0
2017-Apr-26 09:30N 40°41' W 074°05'0 0.0
2017-Apr-26 09:00N 40°41' W 074°05'0 0.0
2017-Apr-26 08:30N 40°41' W 074°05'0 0.0
2017-Apr-26 08:00N 40°41' W 074°05'0 0.0
2017-Apr-26 07:30N 40°41' W 074°05'0 0.0
2017-Apr-26 07:00N 40°41' W 074°05'0 0.0
2017-Apr-26 06:30N 40°41' W 074°05'0 0.0
2017-Apr-26 06:00N 40°41' W 074°05'0 0.0
2017-Apr-26 05:30N 40°41' W 074°05'0 0.0
2017-Apr-26 05:00N 40°41' W 074°05'0 0.0
2017-Apr-26 04:30N 40°41' W 074°05'0 0.0
2017-Apr-26 04:00N 40°41' W 074°05'1 2.5
2017-Apr-26 03:30N 40°41' W 074°03'2 4.3
2017-Apr-26 03:00N 40°40' W 074°01'1 1.1
2017-Apr-26 02:30N 40°40' W 074°01'3 6.1
2017-Apr-26 02:00N 40°43' W 073°59'2 4.4
2017-Apr-26 01:29N 40°44' W 073°57'0 0.0
2017-Apr-26 01:00N 40°44' W 073°57'0 0.0
2017-Apr-26 00:30N 40°44' W 073°57'2 4.2
2017-Apr-26 00:00N 40°43' W 073°59'4 8.3
2017-Apr-25 23:30N 40°41' W 074°03'1 2.2
2017-Apr-25 23:00N 40°41' W 074°04'0 0.3
2017-Apr-25 22:30N 40°41' W 074°05'0 0.0
2017-Apr-25 22:00N 40°41' W 074°05'0 0.0
2017-Apr-25 21:30N 40°41' W 074°05'0 0.0
2017-Apr-25 21:00N 40°41' W 074°05'0 0.0
2017-Apr-25 20:30N 40°41' W 074°05'0 0.0
2017-Apr-25 20:00N 40°41' W 074°05'0 0.0
2017-Apr-25 19:30N 40°41' W 074°05'0 0.0
2017-Apr-25 19:01N 40°41' W 074°05'0 0.0
2017-Apr-25 18:31N 40°41' W 074°05'0 0.0
2017-Apr-25 18:01N 40°41' W 074°05'0 0.0
2017-Apr-25 17:31N 40°41' W 074°05'0 0.0
2017-Apr-25 17:01N 40°41' W 074°05'0 0.0
2017-Apr-25 16:31N 40°41' W 074°05'0 0.0
2017-Apr-25 16:01N 40°41' W 074°05'3 5.4
2017-Apr-25 15:30N 40°39' W 074°06'4 8.6
2017-Apr-25 14:59N 40°38' W 074°12'2 2.2
2017-Apr-25 14:00N 40°39' W 074°10'2 4.3
2017-Apr-25 13:31N 40°39' W 074°07'3 6.7
2017-Apr-25 13:01N 40°41' W 074°03'3 6.8
2017-Apr-25 12:30N 40°44' W 074°01'1 2.2
2017-Apr-25 12:00N 40°45' W 074°01'0 0.0
2017-Apr-25 11:30N 40°45' W 074°01'0 0.0
2017-Apr-25 11:00N 40°45' W 074°01'0 0.0
2017-Apr-25 10:31N 40°45' W 074°01'3 5.6
2017-Apr-25 10:01N 40°42' W 074°02'2 4.4
2017-Apr-25 09:31N 40°41' W 074°05'0 0.0
2017-Apr-25 09:00N 40°41' W 074°05'0 0.0
2017-Apr-25 08:30N 40°41' W 074°05'0 0.0
2017-Apr-25 08:00N 40°41' W 074°05'0 0.0
2017-Apr-25 07:30N 40°41' W 074°05'0 0.0
2017-Apr-25 07:00N 40°41' W 074°05'0 0.1
2017-Apr-25 06:30N 40°41' W 074°05'0 0.3
2017-Apr-25 06:00N 40°41' W 074°04'1 2.0
2017-Apr-25 05:30N 40°40' W 074°03'2 4.3
2017-Apr-25 05:00N 40°40' W 074°01'0 0.3
2017-Apr-25 04:30N 40°40' W 074°01'1 2.6
2017-Apr-25 04:00N 40°41' W 074°01'4 7.8
2017-Apr-25 03:30N 40°44' W 073°58'1 2.0
2017-Apr-25 03:00N 40°44' W 073°57'1 2.6
2017-Apr-25 02:30N 40°45' W 073°58'4 8.8
2017-Apr-25 02:00N 40°48' W 073°53'1 2.0
2017-Apr-25 01:27N 40°49' W 073°53'1 1.2
2017-Apr-25 00:38N 40°48' W 073°52'1 5.0
2017-Apr-25 00:30N 40°48' W 073°52'4 8.1
2017-Apr-25 00:00N 40°46' W 073°57'2 3.4
2017-Apr-24 23:30N 40°44' W 073°57'0 0.1
2017-Apr-24 23:00N 40°44' W 073°57'1 1.6
2017-Apr-24 22:30N 40°44' W 073°58'3 5.9
2017-Apr-24 22:00N 40°42' W 074°00'3 5.9
2017-Apr-24 21:30N 40°41' W 074°04'1 1.8
2017-Apr-24 21:00N 40°41' W 074°05'0 0.3
2017-Apr-24 20:30N 40°41' W 074°05'0 0.0
2017-Apr-24 20:00N 40°41' W 074°05'0 0.0
2017-Apr-24 19:30N 40°41' W 074°05'0 0.0
2017-Apr-24 19:00N 40°41' W 074°05'0 0.0
2017-Apr-24 18:30N 40°41' W 074°05'0 0.0
2017-Apr-24 18:00N 40°41' W 074°05'0 0.0
2017-Apr-24 17:30N 40°41' W 074°05'0 0.0
2017-Apr-24 17:00N 40°41' W 074°05'0 0.0
2017-Apr-24 16:30N 40°41' W 074°05'0 0.0
2017-Apr-24 16:00N 40°41' W 074°05'0 0.0
2017-Apr-24 15:30N 40°41' W 074°05'0 0.0
2017-Apr-24 15:00N 40°41' W 074°05'0 0.0
2017-Apr-24 14:30N 40°41' W 074°05'0 0.0
2017-Apr-24 13:30N 40°41' W 074°05'0 0.0
2017-Apr-24 13:00N 40°41' W 074°05'0 0.0
2017-Apr-24 12:30N 40°41' W 074°05'0 0.0
2017-Apr-24 12:00N 40°41' W 074°05'0 0.0
2017-Apr-24 11:30N 40°41' W 074°05'0 0.0
2017-Apr-24 11:00N 40°41' W 074°05'0 0.0
2017-Apr-24 10:30N 40°41' W 074°05'0 0.0
2017-Apr-24 10:01N 40°41' W 074°05'0 0.0
2017-Apr-24 09:31N 40°41' W 074°05'0 0.0
2017-Apr-24 09:01N 40°41' W 074°05'0 0.0
2017-Apr-24 08:31N 40°41' W 074°05'0 0.0
2017-Apr-24 08:01N 40°41' W 074°05'0 0.0
2017-Apr-24 07:30N 40°41' W 074°05'0 0.0
2017-Apr-24 07:00N 40°41' W 074°05'0 0.0
2017-Apr-24 06:30N 40°41' W 074°05'0 0.0
2017-Apr-24 06:00N 40°41' W 074°05'0 0.0
2017-Apr-24 05:30N 40°41' W 074°05'0 0.0
2017-Apr-24 05:00N 40°41' W 074°05'0 0.0
2017-Apr-24 04:31N 40°41' W 074°05'0 0.0
2017-Apr-24 04:01N 40°41' W 074°05'0 0.0
2017-Apr-24 03:30N 40°41' W 074°05'0 0.0
2017-Apr-24 03:01N 40°41' W 074°05'0 0.0
2017-Apr-24 02:31N 40°41' W 074°05'0 0.0
2017-Apr-24 02:01N 40°41' W 074°05'0 0.0
2017-Apr-24 01:30N 40°41' W 074°05'0 0.0
2017-Apr-24 01:00N 40°41' W 074°05'0 0.0
2017-Apr-24 00:31N 40°41' W 074°05'0 0.0
2017-Apr-24 00:01N 40°41' W 074°05'0 0.0
2017-Apr-23 23:30N 40°41' W 074°05'0 0.0
2017-Apr-23 23:00N 40°41' W 074°05'0 0.0
2017-Apr-23 22:30N 40°41' W 074°05'0 0.0
2017-Apr-23 22:00N 40°41' W 074°05'0 0.0
2017-Apr-23 21:30N 40°41' W 074°05'0 0.0
2017-Apr-23 21:01N 40°41' W 074°05'0 0.0
2017-Apr-23 20:30N 40°41' W 074°05'0 0.0
2017-Apr-23 20:00N 40°41' W 074°05'0 0.0
2017-Apr-23 19:30N 40°41' W 074°05'0 0.0
2017-Apr-23 19:00N 40°41' W 074°05'0 0.0
2017-Apr-23 18:30N 40°41' W 074°05'0 0.0
2017-Apr-23 18:00N 40°41' W 074°05'0 0.0
2017-Apr-23 17:31N 40°41' W 074°05'0 0.1
2017-Apr-23 17:00N 40°41' W 074°05'0 0.0
2017-Apr-23 16:30N 40°41' W 074°05'0 0.0
2017-Apr-23 16:01N 40°41' W 074°05'0 0.0
2017-Apr-23 15:31N 40°41' W 074°05'0 0.0
2017-Apr-23 15:01N 40°41' W 074°05'0 0.0
2017-Apr-23 14:00N 40°41' W 074°05'0 0.0
2017-Apr-23 13:31N 40°41' W 074°05'0 0.0
2017-Apr-23 13:01N 40°41' W 074°05'0 0.0
2017-Apr-23 12:30N 40°41' W 074°05'0 0.0
2017-Apr-23 12:01N 40°41' W 074°05'0 0.0
2017-Apr-23 11:30N 40°41' W 074°05'0 0.1
2017-Apr-23 10:59N 40°41' W 074°05'0 0.0
2017-Apr-23 10:30N 40°41' W 074°05'0 0.0
2017-Apr-23 10:00N 40°41' W 074°05'0 0.0
2017-Apr-23 09:30N 40°41' W 074°05'0 0.0
2017-Apr-23 09:00N 40°41' W 074°05'0 0.0
2017-Apr-23 08:30N 40°41' W 074°05'0 0.0
2017-Apr-23 08:00N 40°41' W 074°05'0 0.0
2017-Apr-23 07:30N 40°41' W 074°05'0 0.0
2017-Apr-23 07:00N 40°41' W 074°05'0 0.0
2017-Apr-23 06:30N 40°41' W 074°05'0 0.0
2017-Apr-23 06:00N 40°41' W 074°05'0 0.0
2017-Apr-23 05:30N 40°41' W 074°05'0 0.0
2017-Apr-23 05:00N 40°41' W 074°05'0 0.0
2017-Apr-23 04:30N 40°41' W 074°05'0 0.0
2017-Apr-23 04:00N 40°41' W 074°05'0 0.0
2017-Apr-23 03:30N 40°41' W 074°05'0 0.0
2017-Apr-23 03:00N 40°41' W 074°05'0 0.0
2017-Apr-23 02:30N 40°41' W 074°05'0 0.0
2017-Apr-23 02:00N 40°41' W 074°05'0 0.0
2017-Apr-23 01:30N 40°41' W 074°05'0 0.0
2017-Apr-23 01:00N 40°41' W 074°05'0 0.0
2017-Apr-23 00:30N 40°41' W 074°05'0 0.0
2017-Apr-23 00:00N 40°41' W 074°05'0 0.0
2017-Apr-22 23:30N 40°41' W 074°05'0 0.0
2017-Apr-22 23:00N 40°41' W 074°05'0 0.0
2017-Apr-22 22:30N 40°41' W 074°05'0 0.0
2017-Apr-22 22:00N 40°41' W 074°05'0 0.0
2017-Apr-22 21:30N 40°41' W 074°05'0 0.0
2017-Apr-22 21:00N 40°41' W 074°05'0 0.0
2017-Apr-22 20:30N 40°41' W 074°05'0 0.0
2017-Apr-22 20:00N 40°41' W 074°05'0 0.0
2017-Apr-22 19:30N 40°41' W 074°05'0 0.0
2017-Apr-22 19:00N 40°41' W 074°05'0 0.0
2017-Apr-22 18:30N 40°41' W 074°05'0 0.0
2017-Apr-22 18:00N 40°41' W 074°05'0 0.0
2017-Apr-22 17:30N 40°41' W 074°05'0 0.0
2017-Apr-22 17:00N 40°41' W 074°05'0 0.0
2017-Apr-22 16:30N 40°41' W 074°05'0 0.0
2017-Apr-22 16:00N 40°41' W 074°05'0 0.0
2017-Apr-22 15:30N 40°41' W 074°05'0 0.0
2017-Apr-22 15:00N 40°41' W 074°05'0 0.0
2017-Apr-22 14:30N 40°41' W 074°05'0 0.0
2017-Apr-22 13:30N 40°41' W 074°05'0 0.0
2017-Apr-22 13:00N 40°41' W 074°05'0 0.0
2017-Apr-22 12:30N 40°41' W 074°05'0 0.0
2017-Apr-22 11:30N 40°41' W 074°05'0 0.0
2017-Apr-22 11:00N 40°41' W 074°05'0 0.0
2017-Apr-22 10:30N 40°41' W 074°05'0 0.0
2017-Apr-22 10:00N 40°41' W 074°05'0 0.0
2017-Apr-22 09:30N 40°41' W 074°05'0 0.0
2017-Apr-22 09:00N 40°41' W 074°05'0 0.0
2017-Apr-22 08:30N 40°41' W 074°05'0 0.0
2017-Apr-22 08:00N 40°41' W 074°05'0 0.0
2017-Apr-22 07:30N 40°41' W 074°05'0 0.0
2017-Apr-22 07:00N 40°41' W 074°05'0 0.0
2017-Apr-22 06:30N 40°41' W 074°05'0 0.0
2017-Apr-22 06:00N 40°41' W 074°05'0 0.0
2017-Apr-22 05:30N 40°41' W 074°05'0 0.0
2017-Apr-22 05:00N 40°41' W 074°05'0 0.0
2017-Apr-22 04:30N 40°41' W 074°05'0 0.0
2017-Apr-22 04:00N 40°41' W 074°05'0 0.0
2017-Apr-22 03:30N 40°41' W 074°05'0 0.0
2017-Apr-22 03:00N 40°41' W 074°05'0 0.3
2017-Apr-22 02:30N 40°41' W 074°04'3 5.8
2017-Apr-22 02:00N 40°42' W 074°01'4 7.7
2017-Apr-22 01:30N 40°44' W 073°57'0 0.9
2017-Apr-22 01:00N 40°44' W 073°57'2 4.8
2017-Apr-22 00:30N 40°42' W 073°59'3 5.1
2017-Apr-22 00:00N 40°41' W 074°02'2 3.6
2017-Apr-21 23:30N 40°41' W 074°04'0 0.4
2017-Apr-21 23:00N 40°41' W 074°05'0 0.0
2017-Apr-21 22:30N 40°41' W 074°05'0 0.0
2017-Apr-21 22:00N 40°41' W 074°05'0 0.0
2017-Apr-21 21:30N 40°41' W 074°05'0 0.0
2017-Apr-21 21:00N 40°41' W 074°05'0 0.0
2017-Apr-21 20:30N 40°41' W 074°05'0 0.0
2017-Apr-21 20:00N 40°41' W 074°05'0 0.3
2017-Apr-21 19:30N 40°41' W 074°04'2 4.5
2017-Apr-21 19:00N 40°39' W 074°05'3 5.4
2017-Apr-21 18:30N 40°39' W 074°09'3 5.0
2017-Apr-21 18:00N 40°38' W 074°12'2 4.4
2017-Apr-21 17:27N 40°35' W 074°12'1 3.3
2017-Apr-21 17:00N 40°37' W 074°12'3 5.6
2017-Apr-21 16:30N 40°39' W 074°10'4 7.2
2017-Apr-21 16:00N 40°39' W 074°05'2 3.8
2017-Apr-21 15:30N 40°41' W 074°04'0 0.3
2017-Apr-21 15:00N 40°41' W 074°05'0 0.0
2017-Apr-21 14:30N 40°41' W 074°05'0 0.0
2017-Apr-21 13:30N 40°41' W 074°05'0 0.7
2017-Apr-21 13:00N 40°41' W 074°04'3 6.2
2017-Apr-21 12:30N 40°40' W 074°01'3 5.5
2017-Apr-21 12:00N 40°42' W 073°60'4 8.8
2017-Apr-21 11:30N 40°46' W 073°57'4 7.8
2017-Apr-21 10:58N 40°48' W 073°52'0 0.2
2017-Apr-21 09:55N 40°48' W 073°52'3 6.1
2017-Apr-21 09:30N 40°47' W 073°55'4 8.3
2017-Apr-21 09:00N 40°44' W 073°58'4 7.8
2017-Apr-21 08:30N 40°41' W 074°01'2 4.6
2017-Apr-21 08:00N 40°41' W 074°04'0 0.4
2017-Apr-21 07:30N 40°41' W 074°05'0 0.0
2017-Apr-21 07:00N 40°41' W 074°05'0 0.0
2017-Apr-21 06:30N 40°41' W 074°05'0 0.0
2017-Apr-21 06:00N 40°41' W 074°05'0 0.0
2017-Apr-21 05:30N 40°41' W 074°05'0 0.0
2017-Apr-21 05:00N 40°41' W 074°05'0 0.0
2017-Apr-21 04:30N 40°41' W 074°05'2 3.0
2017-Apr-21 04:00N 40°40' W 074°04'4 7.5
2017-Apr-21 03:30N 40°39' W 074°09'3 5.5
2017-Apr-21 03:00N 40°42' W 074°09'1 2.2
2017-Apr-21 02:30N 40°41' W 074°08'2 4.2
2017-Apr-21 02:00N 40°39' W 074°08'3 5.3
2017-Apr-21 01:30N 40°39' W 074°05'3 5.7
2017-Apr-21 01:00N 40°41' W 074°02'4 7.1
2017-Apr-21 00:30N 40°43' W 073°58'4 7.9
2017-Apr-21 00:00N 40°47' W 073°56'3 6.6
2017-Apr-20 23:30N 40°48' W 073°52'0 0.1
2017-Apr-20 22:34N 40°48' W 073°52'1 8.3
2017-Apr-20 22:28N 40°48' W 073°53'4 7.9
2017-Apr-20 22:00N 40°46' W 073°57'4 8.9
2017-Apr-20 21:30N 40°42' W 073°60'4 7.2
2017-Apr-20 21:00N 40°41' W 074°05'0 0.2
2017-Apr-20 20:30N 40°41' W 074°05'0 0.0
2017-Apr-20 20:00N 40°41' W 074°05'0 0.0
2017-Apr-20 19:30N 40°41' W 074°05'0 0.0
2017-Apr-20 19:00N 40°41' W 074°05'0 0.0
2017-Apr-20 18:30N 40°41' W 074°05'0 0.0
2017-Apr-20 18:00N 40°41' W 074°05'0 0.0
2017-Apr-20 17:30N 40°41' W 074°05'0 0.0
2017-Apr-20 17:00N 40°41' W 074°05'0 0.0
2017-Apr-20 16:30N 40°41' W 074°05'0 0.0
2017-Apr-20 16:00N 40°41' W 074°05'0 0.0
2017-Apr-20 15:30N 40°41' W 074°05'0 0.0
2017-Apr-20 15:00N 40°41' W 074°05'0 0.0
2017-Apr-20 14:30N 40°41' W 074°05'0 0.0
2017-Apr-20 13:30N 40°41' W 074°05'0 0.4
2017-Apr-20 13:00N 40°41' W 074°04'2 4.0
2017-Apr-20 12:30N 40°40' W 074°02'1 2.8
2017-Apr-20 12:00N 40°40' W 074°01'1 2.1
2017-Apr-20 11:30N 40°41' W 074°01'4 8.0
2017-Apr-20 11:00N 40°44' W 073°58'5 9.3
2017-Apr-20 10:30N 40°48' W 073°54'2 1.6
2017-Apr-20 09:13N 40°49' W 073°52'1 4.2
2017-Apr-20 09:00N 40°48' W 073°53'4 7.7
2017-Apr-20 08:30N 40°46' W 073°57'4 8.4
2017-Apr-20 08:00N 40°42' W 073°60'3 6.6
2017-Apr-20 07:30N 40°41' W 074°04'1 1.7
2017-Apr-20 07:00N 40°41' W 074°04'0 0.1
2017-Apr-20 06:30N 40°41' W 074°04'0 0.3
2017-Apr-20 06:00N 40°41' W 074°05'0 0.0
2017-Apr-20 05:30N 40°41' W 074°05'0 0.0
2017-Apr-20 05:00N 40°41' W 074°05'0 0.0
2017-Apr-20 04:30N 40°41' W 074°05'0 0.0
2017-Apr-20 04:00N 40°41' W 074°05'0 0.0
2017-Apr-20 03:30N 40°41' W 074°05'0 0.0
2017-Apr-20 03:00N 40°41' W 074°05'0 0.0
2017-Apr-20 02:30N 40°41' W 074°05'0 0.0
2017-Apr-20 02:00N 40°41' W 074°05'0 0.0
2017-Apr-20 01:30N 40°41' W 074°05'0 0.0
2017-Apr-20 01:00N 40°41' W 074°05'0 0.0
2017-Apr-20 00:30N 40°41' W 074°05'0 0.0
2017-Apr-20 00:00N 40°41' W 074°05'0 0.0
2017-Apr-19 23:30N 40°41' W 074°05'0 0.0
2017-Apr-19 23:00N 40°41' W 074°05'0 0.0
2017-Apr-19 22:30N 40°41' W 074°05'0 0.0
2017-Apr-19 22:00N 40°41' W 074°05'0 0.0
2017-Apr-19 21:30N 40°41' W 074°05'0 0.0
2017-Apr-19 21:00N 40°41' W 074°05'0 0.0
2017-Apr-19 20:30N 40°41' W 074°05'0 0.0
2017-Apr-19 20:00N 40°41' W 074°05'0 0.0
2017-Apr-19 19:30N 40°41' W 074°05'0 0.0
2017-Apr-19 19:00N 40°41' W 074°05'0 0.7
2017-Apr-19 18:30N 40°41' W 074°04'2 4.6
2017-Apr-19 18:00N 40°40' W 074°01'1 1.7
2017-Apr-19 17:30N 40°40' W 074°01'2 4.6
2017-Apr-19 17:00N 40°40' W 074°03'1 2.5
2017-Apr-19 16:30N 40°41' W 074°05'0 0.0
2017-Apr-19 16:00N 40°41' W 074°05'0 0.0
2017-Apr-19 15:30N 40°41' W 074°05'0 0.0
2017-Apr-19 15:00N 40°41' W 074°05'0 0.0
2017-Apr-19 14:30N 40°41' W 074°05'0 0.0
2017-Apr-19 13:30N 40°41' W 074°05'0 0.0
2017-Apr-19 13:00N 40°41' W 074°05'0 0.0
2017-Apr-19 12:30N 40°41' W 074°05'0 0.0
2017-Apr-19 12:00N 40°41' W 074°05'0 0.0
2017-Apr-19 11:30N 40°41' W 074°05'0 0.0
2017-Apr-19 11:00N 40°41' W 074°05'0 0.0
2017-Apr-19 10:31N 40°41' W 074°05'0 0.0
2017-Apr-19 10:00N 40°41' W 074°05'0 0.0
2017-Apr-19 09:30N 40°41' W 074°05'0 0.0
2017-Apr-19 09:00N 40°41' W 074°05'0 0.0
2017-Apr-19 08:30N 40°41' W 074°05'0 0.0
2017-Apr-19 08:01N 40°41' W 074°05'0 0.0
2017-Apr-19 07:30N 40°41' W 074°05'0 0.0
2017-Apr-19 07:01N 40°41' W 074°05'0 0.0
2017-Apr-19 06:30N 40°41' W 074°05'0 0.0
2017-Apr-19 06:00N 40°41' W 074°05'0 0.0
2017-Apr-19 05:30N 40°41' W 074°05'0 0.0
2017-Apr-19 05:00N 40°41' W 074°05'0 0.0
2017-Apr-19 04:30N 40°41' W 074°05'0 0.0
2017-Apr-19 04:01N 40°41' W 074°05'0 0.0
2017-Apr-19 03:31N 40°41' W 074°05'0 0.1
2017-Apr-19 03:01N 40°41' W 074°05'0 0.6
2017-Apr-19 02:30N 40°41' W 074°04'3 5.2
2017-Apr-19 02:01N 40°39' W 074°06'3 6.6
2017-Apr-19 01:30N 40°39' W 074°10'3 5.8
2017-Apr-19 00:54N 40°36' W 074°12'0 0.4
2017-Apr-19 00:27N 40°35' W 074°12'2 5.2
2017-Apr-19 00:00N 40°38' W 074°12'3 6.6
2017-Apr-18 23:30N 40°39' W 074°08'3 6.7
2017-Apr-18 23:01N 40°40' W 074°04'1 2.6
2017-Apr-18 22:31N 40°41' W 074°04'0 0.2
2017-Apr-18 22:00N 40°41' W 074°05'0 0.1
2017-Apr-18 21:30N 40°41' W 074°05'0 0.1
2017-Apr-18 21:00N 40°41' W 074°05'0 0.0
2017-Apr-18 20:30N 40°41' W 074°05'0 0.0
2017-Apr-18 20:00N 40°41' W 074°05'0 0.0
2017-Apr-18 19:30N 40°41' W 074°05'0 0.0
2017-Apr-18 19:00N 40°41' W 074°05'0 0.0
2017-Apr-18 18:30N 40°41' W 074°05'0 0.0
2017-Apr-18 18:01N 40°41' W 074°05'0 0.0
2017-Apr-18 17:31N 40°41' W 074°05'0 0.0
2017-Apr-18 17:00N 40°41' W 074°05'0 0.0
2017-Apr-18 16:31N 40°41' W 074°05'0 0.0
2017-Apr-18 16:00N 40°41' W 074°05'0 0.0
2017-Apr-18 15:31N 40°41' W 074°05'0 0.0
2017-Apr-18 15:00N 40°41' W 074°05'0 0.0
2017-Apr-18 14:30N 40°41' W 074°05'0 0.0
2017-Apr-18 13:30N 40°41' W 074°05'0 0.0
2017-Apr-18 13:00N 40°41' W 074°05'0 0.0
2017-Apr-18 12:30N 40°41' W 074°05'0 0.0
2017-Apr-18 12:00N 40°41' W 074°05'0 0.0
2017-Apr-18 11:31N 40°41' W 074°05'0 0.0
2017-Apr-18 11:01N 40°41' W 074°05'0 0.0
2017-Apr-18 10:30N 40°41' W 074°05'0 0.0
2017-Apr-18 10:01N 40°41' W 074°05'0 0.0
2017-Apr-18 09:31N 40°41' W 074°05'0 0.0
2017-Apr-18 09:00N 40°41' W 074°05'0 0.0
2017-Apr-18 08:31N 40°41' W 074°05'0 0.0
2017-Apr-18 08:01N 40°41' W 074°05'0 0.0
2017-Apr-18 07:31N 40°41' W 074°05'0 0.0
2017-Apr-18 07:01N 40°41' W 074°05'0 0.0
2017-Apr-18 06:31N 40°41' W 074°05'0 0.0
2017-Apr-18 06:01N 40°41' W 074°05'0 0.0
2017-Apr-18 05:31N 40°41' W 074°05'0 0.0
2017-Apr-18 05:01N 40°41' W 074°05'0 0.0
2017-Apr-18 04:31N 40°41' W 074°05'0 0.0
2017-Apr-18 04:01N 40°41' W 074°05'0 0.0
2017-Apr-18 03:31N 40°41' W 074°05'1 2.8
2017-Apr-18 03:01N 40°41' W 074°03'3 6.5
2017-Apr-18 02:30N 40°42' W 073°59'3 5.0
2017-Apr-18 02:00N 40°44' W 073°57'0 0.4
2017-Apr-18 01:30N 40°44' W 073°57'1 1.2
2017-Apr-18 01:01N 40°44' W 073°57'3 5.3
2017-Apr-18 00:31N 40°42' W 073°60'3 5.7
2017-Apr-18 00:01N 40°41' W 074°03'1 2.7
2017-Apr-17 23:30N 40°41' W 074°04'0 0.0
2017-Apr-17 23:01N 40°41' W 074°05'0 0.3
2017-Apr-17 22:31N 40°41' W 074°05'0 0.0
2017-Apr-17 22:01N 40°41' W 074°05'0 0.0
2017-Apr-17 21:31N 40°41' W 074°05'0 0.0
2017-Apr-17 21:01N 40°41' W 074°05'0 0.0
2017-Apr-17 20:31N 40°41' W 074°05'0 0.0
2017-Apr-17 20:01N 40°41' W 074°05'0 0.0
2017-Apr-17 19:31N 40°41' W 074°05'0 0.0
2017-Apr-17 19:01N 40°41' W 074°05'0 0.0
2017-Apr-17 18:31N 40°41' W 074°05'  

Dump ship's entire track history